createdAt,value
2017-12-30T00:00:55.801Z,5.29
2017-12-30T00:01:56.368Z,5.32
2017-12-30T00:02:56.937Z,5.23
2017-12-30T00:03:57.504Z,5.32
2017-12-30T00:04:58.072Z,5.43
2017-12-30T00:05:58.639Z,5.38
2017-12-30T00:06:59.209Z,5.30
2017-12-30T00:07:59.787Z,5.44
2017-12-30T00:09:00.347Z,5.41
2017-12-30T00:10:00.916Z,5.41
2017-12-30T00:11:01.483Z,5.32
2017-12-30T00:12:02.051Z,5.39
2017-12-30T00:13:02.617Z,5.36
2017-12-30T00:14:03.187Z,5.36
2017-12-30T00:15:03.757Z,5.36
2017-12-30T00:16:04.325Z,5.46
2017-12-30T00:17:04.894Z,5.33
2017-12-30T00:18:05.462Z,5.46
2017-12-30T00:19:06.030Z,5.48
2017-12-30T00:20:06.602Z,5.44
2017-12-30T00:21:07.168Z,5.46
2017-12-30T00:22:07.757Z,5.46
2017-12-30T00:23:08.303Z,5.39
2017-12-30T00:24:08.873Z,5.44
2017-12-30T00:25:09.442Z,5.50
2017-12-30T00:26:10.013Z,5.51
2017-12-30T00:27:10.579Z,5.53
2017-12-30T00:28:11.149Z,5.41
2017-12-30T00:29:11.718Z,5.53
2017-12-30T00:30:12.285Z,5.46
2017-12-30T00:31:12.851Z,5.48
2017-12-30T00:32:13.420Z,5.44
2017-12-30T00:33:14.001Z,5.51
2017-12-30T00:34:14.569Z,5.51
2017-12-30T00:35:15.154Z,5.48
2017-12-30T00:36:15.719Z,5.44
2017-12-30T00:37:16.288Z,5.53
2017-12-30T00:38:16.870Z,5.51
2017-12-30T00:39:17.453Z,5.51
2017-12-30T00:40:18.020Z,5.53
2017-12-30T00:41:18.588Z,5.46
2017-12-30T00:42:19.155Z,5.51
2017-12-30T00:43:19.736Z,5.56
2017-12-30T00:44:20.306Z,5.48
2017-12-30T00:45:20.874Z,5.53
2017-12-30T00:46:21.442Z,5.53
2017-12-30T00:47:22.012Z,5.66
2017-12-30T00:48:22.582Z,5.51
2017-12-30T00:49:23.150Z,5.61
2017-12-30T00:50:23.717Z,5.44
2017-12-30T00:51:24.285Z,5.50
2017-12-30T00:52:24.854Z,5.57
2017-12-30T00:53:25.423Z,5.59
2017-12-30T00:54:25.994Z,5.51
2017-12-30T00:55:26.562Z,5.57
2017-12-30T00:56:27.130Z,5.50
2017-12-30T00:57:27.698Z,5.56
2017-12-30T00:58:28.266Z,5.61
2017-12-30T00:59:28.834Z,5.59
2017-12-30T01:00:29.404Z,5.57
2017-12-30T01:01:29.974Z,5.64
2017-12-30T01:02:30.542Z,5.64
2017-12-30T01:03:31.110Z,5.57
2017-12-30T01:04:31.679Z,5.51
2017-12-30T01:05:32.247Z,5.50
2017-12-30T01:06:32.817Z,5.50
2017-12-30T01:07:33.386Z,5.53
2017-12-30T01:08:33.956Z,5.48
2017-12-30T01:09:34.525Z,5.54
2017-12-30T01:10:35.094Z,5.51
2017-12-30T01:11:35.662Z,5.61
2017-12-30T01:12:36.232Z,5.48
2017-12-30T01:13:36.803Z,5.51
2017-12-30T01:14:37.370Z,5.61
2017-12-30T01:15:37.938Z,5.68
2017-12-30T01:16:38.505Z,5.51
2017-12-30T01:17:39.073Z,5.56
2017-12-30T01:18:39.686Z,5.54
2017-12-30T01:19:40.209Z,5.56
2017-12-30T01:20:40.780Z,5.46
2017-12-30T01:21:41.361Z,5.47
2017-12-30T01:22:41.930Z,5.47
2017-12-30T01:23:42.501Z,5.53
2017-12-30T01:24:43.084Z,5.57
2017-12-30T01:25:43.667Z,5.44
2017-12-30T01:26:44.236Z,5.50
2017-12-30T01:27:44.808Z,5.51
2017-12-30T01:28:45.373Z,5.53
2017-12-30T01:29:45.941Z,5.46
2017-12-30T01:30:46.508Z,5.44
2017-12-30T01:31:47.076Z,5.46
2017-12-30T01:32:47.657Z,5.50
2017-12-30T01:33:48.225Z,5.36
2017-12-30T01:34:48.793Z,5.46
2017-12-30T01:35:49.363Z,5.43
2017-12-30T01:36:49.933Z,5.50
2017-12-30T01:37:50.504Z,5.47
2017-12-30T01:38:51.072Z,5.48
2017-12-30T01:39:51.641Z,5.47
2017-12-30T01:40:52.220Z,5.44
2017-12-30T01:41:52.787Z,5.47
2017-12-30T01:42:53.357Z,5.35
2017-12-30T01:43:53.925Z,5.39
2017-12-30T01:44:54.494Z,5.35
2017-12-30T01:45:55.064Z,5.28
2017-12-30T01:46:55.632Z,5.41
2017-12-30T01:47:56.201Z,5.28
2017-12-30T01:48:56.769Z,5.38
2017-12-30T01:49:57.337Z,5.35
2017-12-30T01:50:57.904Z,5.38
2017-12-30T01:51:58.473Z,5.46
2017-12-30T01:52:59.043Z,5.43
2017-12-30T01:53:59.611Z,5.38
2017-12-30T01:55:00.180Z,5.39
2017-12-30T01:56:00.747Z,5.32
2017-12-30T01:57:01.315Z,5.35
2017-12-30T01:58:01.883Z,5.28
2017-12-30T01:59:02.451Z,5.33
2017-12-30T02:00:03.020Z,5.43
2017-12-30T02:01:03.589Z,5.30
2017-12-30T02:02:04.158Z,5.33
2017-12-30T02:03:04.727Z,5.44
2017-12-30T02:04:05.296Z,5.35
2017-12-30T02:05:05.865Z,5.39
2017-12-30T02:06:06.432Z,5.46
2017-12-30T02:07:07.004Z,5.32
2017-12-30T02:08:07.570Z,5.43
2017-12-30T02:09:08.138Z,5.35
2017-12-30T02:10:08.706Z,5.30
2017-12-30T02:11:09.275Z,5.39
2017-12-30T02:12:09.846Z,5.41
2017-12-30T02:13:10.414Z,5.44
2017-12-30T02:14:10.984Z,5.43
2017-12-30T02:15:11.551Z,5.39
2017-12-30T02:16:12.117Z,5.35
2017-12-30T02:17:12.686Z,5.38
2017-12-30T02:18:13.254Z,5.33
2017-12-30T02:19:13.824Z,5.25
2017-12-30T02:20:14.406Z,5.32
2017-12-30T02:21:14.974Z,5.30
2017-12-30T02:22:15.544Z,5.33
2017-12-30T02:23:16.113Z,5.30
2017-12-30T02:24:16.681Z,5.32
2017-12-30T02:25:17.249Z,5.23
2017-12-30T02:26:17.818Z,5.21
2017-12-30T02:27:18.386Z,5.29
2017-12-30T02:28:18.957Z,5.25
2017-12-30T02:29:19.524Z,5.21
2017-12-30T02:30:20.091Z,5.21
2017-12-30T02:31:20.660Z,5.23
2017-12-30T02:32:21.242Z,5.21
2017-12-30T02:33:21.809Z,5.26
2017-12-30T02:34:22.377Z,5.20
2017-12-30T02:35:22.946Z,5.23
2017-12-30T02:36:23.520Z,5.39
2017-12-30T02:37:24.079Z,5.48
2017-12-30T02:38:24.663Z,5.39
2017-12-30T02:39:25.230Z,5.32
2017-12-30T02:40:25.799Z,5.25
2017-12-30T02:41:26.365Z,5.32
2017-12-30T02:42:26.936Z,5.23
2017-12-30T02:43:27.503Z,5.18
2017-12-30T02:44:28.071Z,5.36
2017-12-30T02:45:28.638Z,5.23
2017-12-30T02:46:29.207Z,5.35
2017-12-30T02:47:29.775Z,5.28
2017-12-30T02:48:30.346Z,5.26
2017-12-30T02:49:30.924Z,5.18
2017-12-30T02:50:31.490Z,5.21
2017-12-30T02:51:32.058Z,5.11
2017-12-30T02:52:32.626Z,5.12
2017-12-30T02:53:33.210Z,5.11
2017-12-30T02:54:33.776Z,5.14
2017-12-30T02:55:34.345Z,5.07
2017-12-30T02:56:34.914Z,4.93
2017-12-30T02:57:35.482Z,5.02
2017-12-30T02:58:36.065Z,4.99
2017-12-30T02:59:36.646Z,5.04
2017-12-30T03:00:37.214Z,4.92
2017-12-30T03:01:37.786Z,4.93
2017-12-30T03:02:38.368Z,4.82
2017-12-30T03:03:38.938Z,4.92
2017-12-30T03:04:39.508Z,4.94
2017-12-30T03:05:40.075Z,4.90
2017-12-30T03:06:40.658Z,4.78
2017-12-30T03:07:41.229Z,4.78
2017-12-30T03:08:41.797Z,4.82
2017-12-30T03:09:42.364Z,4.75
2017-12-30T03:10:42.932Z,4.77
2017-12-30T03:11:43.502Z,4.63
2017-12-30T03:12:44.074Z,4.68
2017-12-30T03:13:44.638Z,4.63
2017-12-30T03:14:45.208Z,4.60
2017-12-30T03:15:45.774Z,4.71
2017-12-30T03:16:46.358Z,4.60
2017-12-30T03:17:46.926Z,4.60
2017-12-30T03:18:47.493Z,4.59
2017-12-30T03:19:48.075Z,4.68
2017-12-30T03:20:48.642Z,4.59
2017-12-30T03:21:49.211Z,4.63
2017-12-30T03:22:49.779Z,4.60
2017-12-30T03:23:50.350Z,4.67
2017-12-30T03:24:50.917Z,4.63
2017-12-30T03:25:51.498Z,4.59
2017-12-30T03:26:52.069Z,4.60
2017-12-30T03:27:52.637Z,4.58
2017-12-30T03:28:53.209Z,4.60
2017-12-30T03:29:53.775Z,4.58
2017-12-30T03:30:54.342Z,4.60
2017-12-30T03:31:54.912Z,4.56
2017-12-30T03:32:55.495Z,4.50
2017-12-30T03:33:56.066Z,4.60
2017-12-30T03:34:56.634Z,4.58
2017-12-30T03:35:57.201Z,4.50
2017-12-30T03:36:57.769Z,4.50
2017-12-30T03:37:58.351Z,4.50
2017-12-30T03:38:58.919Z,4.50
2017-12-30T03:39:59.491Z,4.50
2017-12-30T03:41:00.056Z,4.50
2017-12-30T03:42:00.624Z,4.53
2017-12-30T03:43:01.193Z,4.42
2017-12-30T03:44:01.761Z,4.41
2017-12-30T03:45:02.330Z,4.38
2017-12-30T03:46:02.898Z,4.35
2017-12-30T03:47:03.466Z,4.32
2017-12-30T03:48:04.034Z,4.37
2017-12-30T03:49:04.609Z,4.40
2017-12-30T03:50:05.174Z,4.37
2017-12-30T03:51:05.740Z,4.37
2017-12-30T03:52:06.309Z,4.26
2017-12-30T03:53:06.876Z,4.40
2017-12-30T03:54:07.443Z,4.34
2017-12-30T03:55:08.012Z,4.19
2017-12-30T03:56:08.579Z,4.22
2017-12-30T03:57:09.148Z,4.23
2017-12-30T03:58:09.716Z,4.20
2017-12-30T03:59:10.287Z,4.17
2017-12-30T04:00:10.855Z,4.20
2017-12-30T04:01:11.422Z,4.20
2017-12-30T04:02:11.990Z,4.20
2017-12-30T04:03:12.571Z,4.23
2017-12-30T04:04:13.137Z,4.23
2017-12-30T04:05:13.706Z,4.19
2017-12-30T04:06:14.274Z,4.16
2017-12-30T04:07:14.903Z,4.13
2017-12-30T04:08:15.426Z,4.13
2017-12-30T04:09:15.995Z,4.16
2017-12-30T04:10:16.566Z,4.17
2017-12-30T04:11:17.132Z,4.13
2017-12-30T04:12:17.701Z,4.06
2017-12-30T04:13:18.284Z,4.13
2017-12-30T04:14:18.853Z,4.17
2017-12-30T04:15:19.419Z,4.12
2017-12-30T04:16:19.988Z,4.05
2017-12-30T04:17:20.557Z,4.05
2017-12-30T04:18:21.128Z,4.17
2017-12-30T04:19:21.696Z,4.05
2017-12-30T04:20:22.277Z,4.12
2017-12-30T04:21:22.845Z,4.08
2017-12-30T04:22:23.467Z,4.08
2017-12-30T04:23:23.981Z,4.10
2017-12-30T04:24:24.550Z,4.08
2017-12-30T04:25:25.118Z,4.04
2017-12-30T04:26:25.691Z,4.20
2017-12-30T04:27:26.269Z,4.14
2017-12-30T04:28:26.838Z,4.19
2017-12-30T04:29:27.413Z,4.12
2017-12-30T04:30:27.989Z,4.12
2017-12-30T04:31:28.559Z,4.06
2017-12-30T04:32:29.127Z,4.16
2017-12-30T04:33:29.695Z,4.10
2017-12-30T04:34:30.261Z,4.02
2017-12-30T04:35:30.829Z,4.17
2017-12-30T04:36:31.395Z,4.08
2017-12-30T04:37:31.961Z,4.06
2017-12-30T04:38:32.529Z,4.13
2017-12-30T04:39:33.108Z,4.06
2017-12-30T04:40:33.675Z,4.20
2017-12-30T04:41:34.247Z,4.12
2017-12-30T04:42:34.809Z,4.19
2017-12-30T04:43:35.376Z,4.10
2017-12-30T04:44:35.945Z,4.08
2017-12-30T04:45:36.513Z,4.08
2017-12-30T04:46:37.085Z,4.04
2017-12-30T04:47:37.653Z,4.08
2017-12-30T04:48:38.236Z,4.08
2017-12-30T04:49:38.804Z,4.08
2017-12-30T04:50:39.372Z,4.06
2017-12-30T04:51:39.941Z,4.08
2017-12-30T04:52:40.511Z,4.06
2017-12-30T04:53:41.080Z,4.05
2017-12-30T04:54:41.648Z,4.06
2017-12-30T04:55:42.231Z,4.12
2017-12-30T04:56:42.799Z,4.06
2017-12-30T04:57:43.369Z,4.13
2017-12-30T04:58:43.936Z,4.08
2017-12-30T04:59:44.504Z,4.08
2017-12-30T05:00:45.075Z,4.08
2017-12-30T05:01:45.642Z,4.14
2017-12-30T05:02:46.210Z,4.17
2017-12-30T05:03:46.778Z,4.05
2017-12-30T05:04:47.345Z,4.17
2017-12-30T05:05:47.912Z,4.13
2017-12-30T05:06:48.494Z,4.08
2017-12-30T05:07:49.063Z,4.08
2017-12-30T05:08:49.644Z,4.13
2017-12-30T05:09:50.211Z,4.13
2017-12-30T05:10:50.778Z,4.17
2017-12-30T05:11:51.345Z,4.13
2017-12-30T05:12:51.913Z,4.14
2017-12-30T05:13:52.482Z,4.13
2017-12-30T05:14:53.051Z,4.13
2017-12-30T05:15:53.634Z,4.12
2017-12-30T05:16:54.204Z,4.17
2017-12-30T05:17:54.772Z,4.23
2017-12-30T05:18:55.342Z,4.20
2017-12-30T05:19:55.922Z,4.13
2017-12-30T05:20:56.490Z,4.10
2017-12-30T05:21:57.058Z,4.16
2017-12-30T05:22:57.626Z,4.16
2017-12-30T05:23:58.193Z,4.13
2017-12-30T05:24:58.763Z,4.10
2017-12-30T05:25:59.332Z,4.10
2017-12-30T05:26:59.901Z,4.13
2017-12-30T05:28:00.473Z,4.12
2017-12-30T05:29:01.035Z,4.13
2017-12-30T05:30:01.602Z,4.14
2017-12-30T05:31:02.170Z,4.16
2017-12-30T05:32:02.740Z,4.10
2017-12-30T05:33:03.320Z,4.13
2017-12-30T05:34:03.901Z,4.14
2017-12-30T05:35:04.469Z,4.16
2017-12-30T05:36:05.037Z,4.10
2017-12-30T05:37:05.620Z,4.16
2017-12-30T05:38:06.187Z,4.16
2017-12-30T05:39:06.755Z,4.13
2017-12-30T05:40:07.324Z,4.14
2017-12-30T05:41:07.904Z,4.16
2017-12-30T05:42:08.472Z,4.13
2017-12-30T05:43:09.041Z,4.08
2017-12-30T05:44:09.615Z,4.16
2017-12-30T05:45:10.194Z,4.14
2017-12-30T05:46:10.765Z,4.17
2017-12-30T05:47:11.347Z,4.20
2017-12-30T05:48:11.917Z,4.19
2017-12-30T05:49:12.485Z,4.14
2017-12-30T05:50:13.072Z,4.19
2017-12-30T05:51:13.621Z,4.19
2017-12-30T05:52:14.191Z,4.24
2017-12-30T05:53:14.772Z,4.28
2017-12-30T05:54:15.344Z,4.24
2017-12-30T05:55:15.907Z,4.30
2017-12-30T05:56:16.477Z,4.31
2017-12-30T05:57:17.045Z,4.34
2017-12-30T05:58:17.614Z,4.31
2017-12-30T05:59:18.183Z,4.30
2017-12-30T06:00:18.763Z,4.30
2017-12-30T06:01:19.317Z,4.37
2017-12-30T06:02:19.885Z,4.30
2017-12-30T06:03:20.455Z,4.32
2017-12-30T06:04:21.038Z,4.31
2017-12-30T06:05:21.606Z,4.35
2017-12-30T06:06:22.188Z,4.42
2017-12-30T06:07:22.759Z,4.37
2017-12-30T06:08:23.330Z,4.44
2017-12-30T06:09:23.896Z,4.44
2017-12-30T06:10:24.466Z,4.37
2017-12-30T06:11:25.032Z,4.38
2017-12-30T06:12:25.603Z,4.37
2017-12-30T06:13:26.173Z,4.42
2017-12-30T06:14:26.742Z,4.44
2017-12-30T06:15:27.312Z,4.42
2017-12-30T06:16:27.877Z,4.52
2017-12-30T06:17:28.448Z,4.44
2017-12-30T06:18:29.014Z,4.44
2017-12-30T06:19:29.594Z,4.52
2017-12-30T06:20:30.175Z,4.49
2017-12-30T06:21:30.757Z,4.49
2017-12-30T06:22:31.324Z,4.42
2017-12-30T06:23:31.893Z,4.55
2017-12-30T06:24:32.460Z,4.52
2017-12-30T06:25:33.027Z,4.50
2017-12-30T06:26:33.596Z,4.48
2017-12-30T06:27:34.164Z,4.48
2017-12-30T06:28:34.734Z,4.42
2017-12-30T06:29:35.301Z,4.45
2017-12-30T06:30:35.871Z,4.50
2017-12-30T06:31:36.439Z,4.45
2017-12-30T06:32:37.022Z,4.49
2017-12-30T06:33:37.591Z,4.42
2017-12-30T06:34:38.173Z,4.52
2017-12-30T06:35:38.741Z,4.41
2017-12-30T06:36:39.309Z,4.40
2017-12-30T06:37:39.878Z,4.48
2017-12-30T06:38:40.446Z,4.44
2017-12-30T06:39:41.027Z,4.48
2017-12-30T06:40:41.608Z,4.42
2017-12-30T06:41:42.190Z,4.41
2017-12-30T06:42:42.757Z,4.44
2017-12-30T06:43:43.326Z,4.42
2017-12-30T06:44:43.894Z,4.42
2017-12-30T06:45:44.476Z,4.42
2017-12-30T06:46:45.061Z,4.44
2017-12-30T06:47:45.628Z,4.44
2017-12-30T06:48:46.196Z,4.41
2017-12-30T06:49:46.764Z,4.41
2017-12-30T06:50:47.331Z,4.41
2017-12-30T06:51:47.901Z,4.42
2017-12-30T06:52:48.471Z,4.41
2017-12-30T06:53:49.039Z,4.42
2017-12-30T06:54:49.607Z,4.38
2017-12-30T06:55:50.174Z,4.40
2017-12-30T06:56:50.743Z,4.40
2017-12-30T06:57:51.325Z,4.41
2017-12-30T06:58:51.894Z,4.38
2017-12-30T06:59:52.476Z,4.37
2017-12-30T07:00:53.043Z,4.37
2017-12-30T07:01:53.611Z,4.32
2017-12-30T07:02:54.178Z,4.37
2017-12-30T07:03:54.747Z,4.32
2017-12-30T07:04:55.317Z,4.34
2017-12-30T07:05:55.890Z,4.32
2017-12-30T07:06:56.459Z,4.28
2017-12-30T07:07:57.040Z,4.28
2017-12-30T07:08:57.607Z,4.35
2017-12-30T07:09:58.222Z,4.28
2017-12-30T07:10:58.742Z,4.31
2017-12-30T07:11:59.311Z,4.31
2017-12-30T07:12:59.921Z,4.31
2017-12-30T07:14:00.449Z,4.24
2017-12-30T07:15:01.016Z,4.30
2017-12-30T07:16:01.584Z,4.26
2017-12-30T07:17:02.154Z,4.35
2017-12-30T07:18:02.721Z,4.26
2017-12-30T07:19:03.303Z,4.24
2017-12-30T07:20:03.872Z,4.28
2017-12-30T07:21:04.454Z,4.28
2017-12-30T07:22:05.023Z,4.20
2017-12-30T07:23:05.592Z,4.23
2017-12-30T07:24:06.160Z,4.14
2017-12-30T07:25:06.729Z,4.22
2017-12-30T07:26:07.296Z,4.24
2017-12-30T07:27:07.866Z,4.22
2017-12-30T07:28:08.433Z,4.13
2017-12-30T07:29:09.004Z,4.22
2017-12-30T07:30:09.584Z,4.14
2017-12-30T07:31:10.166Z,4.19
2017-12-30T07:32:10.734Z,4.35
2017-12-30T07:33:11.302Z,4.20
2017-12-30T07:34:11.870Z,4.19
2017-12-30T07:35:12.439Z,4.22
2017-12-30T07:36:13.008Z,4.14
2017-12-30T07:37:13.578Z,4.23
2017-12-30T07:38:14.148Z,4.22
2017-12-30T07:39:14.716Z,4.17
2017-12-30T07:40:15.284Z,4.24
2017-12-30T07:41:15.852Z,4.32
2017-12-30T07:42:16.435Z,4.24
2017-12-30T07:43:17.017Z,4.30
2017-12-30T07:44:17.585Z,4.31
2017-12-30T07:45:18.153Z,4.34
2017-12-30T07:46:18.722Z,4.32
2017-12-30T07:47:19.293Z,4.28
2017-12-30T07:48:19.863Z,4.31
2017-12-30T07:49:20.429Z,4.26
2017-12-30T07:50:20.995Z,4.31
2017-12-30T07:51:21.564Z,4.26
2017-12-30T07:52:22.130Z,4.31
2017-12-30T07:53:22.700Z,4.28
2017-12-30T07:54:23.269Z,4.28
2017-12-30T07:55:23.838Z,4.34
2017-12-30T07:56:24.406Z,4.30
2017-12-30T07:57:24.975Z,4.34
2017-12-30T07:58:25.543Z,4.35
2017-12-30T07:59:26.123Z,4.41
2017-12-30T08:00:26.693Z,4.38
2017-12-30T08:01:27.260Z,4.30
2017-12-30T08:02:27.830Z,4.31
2017-12-30T08:03:28.399Z,4.31
2017-12-30T08:04:28.968Z,4.32
2017-12-30T08:05:29.538Z,4.26
2017-12-30T08:06:30.107Z,4.32
2017-12-30T08:07:30.675Z,4.31
2017-12-30T08:08:31.259Z,4.34
2017-12-30T08:09:31.828Z,4.40
2017-12-30T08:10:32.405Z,4.32
2017-12-30T08:11:33.003Z,4.40
2017-12-30T08:12:33.537Z,4.41
2017-12-30T08:13:34.112Z,4.32
2017-12-30T08:14:34.688Z,4.38
2017-12-30T08:15:35.257Z,4.32
2017-12-30T08:16:35.826Z,4.32
2017-12-30T08:17:36.396Z,4.34
2017-12-30T08:18:36.978Z,4.35
2017-12-30T08:19:37.548Z,4.35
2017-12-30T08:20:38.119Z,4.41
2017-12-30T08:21:38.702Z,4.44
2017-12-30T08:22:39.272Z,4.40
2017-12-30T08:23:39.842Z,4.41
2017-12-30T08:24:40.434Z,4.32
2017-12-30T08:25:40.981Z,4.41
2017-12-30T08:26:41.551Z,4.30
2017-12-30T08:27:42.121Z,4.38
2017-12-30T08:28:42.692Z,4.34
2017-12-30T08:29:43.266Z,4.35
2017-12-30T08:30:43.833Z,4.34
2017-12-30T08:31:44.398Z,4.34
2017-12-30T08:32:44.967Z,4.34
2017-12-30T08:33:45.536Z,4.30
2017-12-30T08:34:46.105Z,4.26
2017-12-30T08:35:46.676Z,4.37
2017-12-30T08:36:47.244Z,4.40
2017-12-30T08:37:47.814Z,4.41
2017-12-30T08:38:48.384Z,4.38
2017-12-30T08:39:48.953Z,4.45
2017-12-30T08:40:49.524Z,4.40
2017-12-30T08:41:50.092Z,4.41
2017-12-30T08:42:50.680Z,4.44
2017-12-30T08:43:51.246Z,4.53
2017-12-30T08:44:51.815Z,4.45
2017-12-30T08:45:52.400Z,4.48
2017-12-30T08:46:52.969Z,4.50
2017-12-30T08:47:53.538Z,4.45
2017-12-30T08:48:54.108Z,4.50
2017-12-30T08:49:54.678Z,4.48
2017-12-30T08:50:55.260Z,4.53
2017-12-30T08:51:55.830Z,4.53
2017-12-30T08:52:56.401Z,4.55
2017-12-30T08:53:56.966Z,4.53
2017-12-30T08:54:57.536Z,4.50
2017-12-30T08:55:58.104Z,4.52
2017-12-30T08:56:58.674Z,4.42
2017-12-30T08:57:59.245Z,4.52
2017-12-30T08:58:59.814Z,4.48
2017-12-30T09:00:00.382Z,4.45
2017-12-30T09:01:00.952Z,4.50
2017-12-30T09:02:01.521Z,4.52
2017-12-30T09:03:02.093Z,4.55
2017-12-30T09:04:02.663Z,4.53
2017-12-30T09:05:03.236Z,4.53
2017-12-30T09:06:03.814Z,4.50
2017-12-30T09:07:04.382Z,4.59
2017-12-30T09:08:04.952Z,4.60
2017-12-30T09:09:05.525Z,4.58
2017-12-30T09:10:06.093Z,4.63
2017-12-30T09:11:06.663Z,4.63
2017-12-30T09:12:07.231Z,4.59
2017-12-30T09:13:07.800Z,4.62
2017-12-30T09:14:08.372Z,4.62
2017-12-30T09:15:08.939Z,4.67
2017-12-30T09:16:09.522Z,4.62
2017-12-30T09:17:10.092Z,4.66
2017-12-30T09:18:10.662Z,4.59
2017-12-30T09:19:11.232Z,4.66
2017-12-30T09:20:11.803Z,4.66
2017-12-30T09:21:12.372Z,4.63
2017-12-30T09:22:12.948Z,4.66
2017-12-30T09:23:13.512Z,4.63
2017-12-30T09:24:14.083Z,4.67
2017-12-30T09:25:14.655Z,4.68
2017-12-30T09:26:15.224Z,4.70
2017-12-30T09:27:15.791Z,4.74
2017-12-30T09:28:16.360Z,4.75
2017-12-30T09:29:16.930Z,4.77
2017-12-30T09:30:17.503Z,4.62
2017-12-30T09:31:18.071Z,4.67
2017-12-30T09:32:18.641Z,4.68
2017-12-30T09:33:19.210Z,4.84
2017-12-30T09:34:19.781Z,4.70
2017-12-30T09:35:20.351Z,4.74
2017-12-30T09:36:20.921Z,4.77
2017-12-30T09:37:21.490Z,4.80
2017-12-30T09:38:22.058Z,4.80
2017-12-30T09:39:22.629Z,4.86
2017-12-30T09:40:23.201Z,4.82
2017-12-30T09:41:23.786Z,4.75
2017-12-30T09:42:24.355Z,4.82
2017-12-30T09:43:24.924Z,4.78
2017-12-30T09:44:25.494Z,4.84
2017-12-30T09:45:26.077Z,4.78
2017-12-30T09:46:26.647Z,4.82
2017-12-30T09:47:27.216Z,4.89
2017-12-30T09:48:27.797Z,4.87
2017-12-30T09:49:28.369Z,4.96
2017-12-30T09:50:28.941Z,4.92
2017-12-30T09:51:29.510Z,4.92
2017-12-30T09:52:30.080Z,4.90
2017-12-30T09:53:30.651Z,4.93
2017-12-30T09:54:31.219Z,4.92
2017-12-30T09:55:31.790Z,4.82
2017-12-30T09:56:32.359Z,4.84
2017-12-30T09:57:32.930Z,4.96
2017-12-30T09:58:33.502Z,4.86
2017-12-30T09:59:34.070Z,4.97
2017-12-30T10:00:34.640Z,5.04
2017-12-30T10:01:35.208Z,4.92
2017-12-30T10:02:35.778Z,4.92
2017-12-30T10:03:36.349Z,4.97
2017-12-30T10:04:36.919Z,5.05
2017-12-30T10:05:37.488Z,5.04
2017-12-30T10:06:38.059Z,4.97
2017-12-30T10:07:38.628Z,5.04
2017-12-30T10:08:39.200Z,5.02
2017-12-30T10:09:39.769Z,5.02
2017-12-30T10:10:40.354Z,5.14
2017-12-30T10:11:40.925Z,5.08
2017-12-30T10:12:41.493Z,5.08
2017-12-30T10:13:42.063Z,5.11
2017-12-30T10:14:42.636Z,5.20
2017-12-30T10:15:43.207Z,5.17
2017-12-30T10:16:43.776Z,5.17
2017-12-30T10:17:44.360Z,5.20
2017-12-30T10:18:44.928Z,5.28
2017-12-30T10:19:45.499Z,5.21
2017-12-30T10:20:46.074Z,5.32
2017-12-30T10:21:46.644Z,5.33
2017-12-30T10:22:47.214Z,5.30
2017-12-30T10:23:47.784Z,5.36
2017-12-30T10:24:48.381Z,5.39
2017-12-30T10:25:48.951Z,5.30
2017-12-30T10:26:49.521Z,5.46
2017-12-30T10:27:50.093Z,5.44
2017-12-30T10:28:50.661Z,5.43
2017-12-30T10:29:51.231Z,5.53
2017-12-30T10:30:51.800Z,5.51
2017-12-30T10:31:52.371Z,5.51
2017-12-30T10:32:52.941Z,5.57
2017-12-30T10:33:53.510Z,5.50
2017-12-30T10:34:54.080Z,5.59
2017-12-30T10:35:54.647Z,5.66
2017-12-30T10:36:55.214Z,5.61
2017-12-30T10:37:55.785Z,5.62
2017-12-30T10:38:56.354Z,5.66
2017-12-30T10:39:56.925Z,5.71
2017-12-30T10:40:57.494Z,5.75
2017-12-30T10:41:58.061Z,5.75
2017-12-30T10:42:58.629Z,5.83
2017-12-30T10:43:59.202Z,5.84
2017-12-30T10:44:59.771Z,5.91
2017-12-30T10:46:00.339Z,5.99
2017-12-30T10:47:00.909Z,5.94
2017-12-30T10:48:01.477Z,6.01
2017-12-30T10:49:02.050Z,6.11
2017-12-30T10:50:02.616Z,6.11
2017-12-30T10:51:03.198Z,6.24
2017-12-30T10:52:03.785Z,6.28
2017-12-30T10:53:04.338Z,6.38
2017-12-30T10:54:04.910Z,6.33
2017-12-30T10:55:05.494Z,6.49
2017-12-30T10:56:06.070Z,6.46
2017-12-30T10:57:06.633Z,6.48
2017-12-30T10:58:07.201Z,6.60
2017-12-30T10:59:07.772Z,6.70
2017-12-30T11:00:08.342Z,6.74
2017-12-30T11:01:08.913Z,6.70
2017-12-30T11:02:09.480Z,6.85
2017-12-30T11:03:10.048Z,6.88
2017-12-30T11:04:10.618Z,7.00
2017-12-30T11:05:11.186Z,7.06
2017-12-30T11:06:11.756Z,7.07
2017-12-30T11:07:12.325Z,7.14
2017-12-30T11:08:12.897Z,7.32
2017-12-30T11:09:13.463Z,7.28
2017-12-30T11:10:14.046Z,7.29
2017-12-30T11:11:14.615Z,7.20
2017-12-30T11:12:15.184Z,7.24
2017-12-30T11:13:15.754Z,7.31
2017-12-30T11:14:16.322Z,7.33
2017-12-30T11:15:16.894Z,7.32
2017-12-30T11:16:17.474Z,7.39
2017-12-30T11:17:18.043Z,7.36
2017-12-30T11:18:18.612Z,7.47
2017-12-30T11:19:19.183Z,7.39
2017-12-30T11:20:19.751Z,7.42
2017-12-30T11:21:20.320Z,7.43
2017-12-30T11:22:20.890Z,7.47
2017-12-30T11:23:21.457Z,7.40
2017-12-30T11:24:22.025Z,7.38
2017-12-30T11:25:22.595Z,7.54
2017-12-30T11:26:23.165Z,7.60
2017-12-30T11:27:23.737Z,7.51
2017-12-30T11:28:24.306Z,7.54
2017-12-30T11:29:24.875Z,7.51
2017-12-30T11:30:25.443Z,7.51
2017-12-30T11:31:26.012Z,7.67
2017-12-30T11:32:26.580Z,7.63
2017-12-30T11:33:27.152Z,7.69
2017-12-30T11:34:27.722Z,7.72
2017-12-30T11:35:28.299Z,7.83
2017-12-30T11:36:28.912Z,7.90
2017-12-30T11:37:29.448Z,7.90
2017-12-30T11:38:30.019Z,7.79
2017-12-30T11:39:30.588Z,7.85
2017-12-30T11:40:31.160Z,7.79
2017-12-30T11:41:31.731Z,7.98
2017-12-30T11:42:32.299Z,8.05
2017-12-30T11:43:32.871Z,8.15
2017-12-30T11:44:33.438Z,8.15
2017-12-30T11:45:34.007Z,8.27
2017-12-30T11:46:34.578Z,8.19
2017-12-30T11:47:35.146Z,8.27
2017-12-30T11:48:35.729Z,8.38
2017-12-30T11:49:36.311Z,8.45
2017-12-30T11:50:36.881Z,8.44
2017-12-30T11:51:37.449Z,8.45
2017-12-30T11:52:38.074Z,8.48
2017-12-30T11:53:38.594Z,8.51
2017-12-30T11:54:39.165Z,8.60
2017-12-30T11:55:39.736Z,8.60
2017-12-30T11:56:40.305Z,8.61
2017-12-30T11:57:40.878Z,8.63
2017-12-30T11:58:41.478Z,8.60
2017-12-30T11:59:42.032Z,8.61
2017-12-30T12:00:42.605Z,8.76
2017-12-30T12:01:43.176Z,8.63
2017-12-30T12:02:43.747Z,8.76
2017-12-30T12:03:44.322Z,8.78
2017-12-30T12:04:44.897Z,8.81
2017-12-30T12:05:45.469Z,8.95
2017-12-30T12:06:46.038Z,9.03
2017-12-30T12:07:46.606Z,8.99
2017-12-30T12:08:47.182Z,9.13
2017-12-30T12:09:47.762Z,9.19
2017-12-30T12:10:48.334Z,9.16
2017-12-30T12:11:48.906Z,9.21
2017-12-30T12:12:49.477Z,9.16
2017-12-30T12:13:50.049Z,9.22
2017-12-30T12:14:50.619Z,9.31
2017-12-30T12:15:51.191Z,9.31
2017-12-30T12:16:51.764Z,9.28
2017-12-30T12:17:52.333Z,9.39
2017-12-30T12:18:52.904Z,9.61
2017-12-30T12:19:53.475Z,9.54
2017-12-30T12:20:54.047Z,9.47
2017-12-30T12:21:54.621Z,9.54
2017-12-30T12:22:55.206Z,9.61
2017-12-30T12:23:55.777Z,9.55
2017-12-30T12:24:56.347Z,9.64
2017-12-30T12:25:56.917Z,9.66
2017-12-30T12:26:57.486Z,9.79
2017-12-30T12:27:58.261Z,9.79
2017-12-30T12:28:58.832Z,9.72
2017-12-30T12:29:59.400Z,9.84
2017-12-30T12:30:59.970Z,9.94
2017-12-30T12:32:00.540Z,9.98
2017-12-30T12:33:01.113Z,9.97
2017-12-30T12:34:01.685Z,9.97
2017-12-30T12:35:02.257Z,10.09
2017-12-30T12:36:02.830Z,10.19
2017-12-30T12:37:03.402Z,10.20
2017-12-30T12:38:03.977Z,10.30
2017-12-30T12:39:04.552Z,10.19
2017-12-30T12:40:05.124Z,10.30
2017-12-30T12:41:05.699Z,10.33
2017-12-30T12:42:06.275Z,10.30
2017-12-30T12:43:06.848Z,10.23
2017-12-30T12:44:07.426Z,10.35
2017-12-30T12:45:07.995Z,10.42
2017-12-30T12:46:08.572Z,10.44
2017-12-30T12:47:09.159Z,10.53
2017-12-30T12:48:09.732Z,10.56
2017-12-30T12:49:10.307Z,10.53
2017-12-30T12:50:10.880Z,10.72
2017-12-30T12:51:11.459Z,10.69
2017-12-30T12:52:12.035Z,10.79
2017-12-30T12:53:12.608Z,10.87
2017-12-30T12:54:13.182Z,10.87
2017-12-30T12:55:13.756Z,10.84
2017-12-30T12:56:14.332Z,10.87
2017-12-30T12:57:14.906Z,10.79
2017-12-30T12:58:15.479Z,10.87
2017-12-30T12:59:16.053Z,10.96
2017-12-30T13:00:16.640Z,10.92
2017-12-30T13:01:17.215Z,10.94
2017-12-30T13:02:17.788Z,11.05
2017-12-30T13:03:18.375Z,11.04
2017-12-30T13:04:18.947Z,11.14
2017-12-30T13:05:19.519Z,11.14
2017-12-30T13:06:20.090Z,11.11
2017-12-30T13:07:20.665Z,11.12
2017-12-30T13:08:21.238Z,11.14
2017-12-30T13:09:21.812Z,11.25
2017-12-30T13:10:22.398Z,11.25
2017-12-30T13:11:22.972Z,11.17
2017-12-30T13:12:23.547Z,11.25
2017-12-30T13:13:24.125Z,11.15
2017-12-30T13:14:24.705Z,11.23
2017-12-30T13:15:25.274Z,11.17
2017-12-30T13:16:25.861Z,11.29
2017-12-30T13:17:26.437Z,11.33
2017-12-30T13:18:27.011Z,11.30
2017-12-30T13:19:27.635Z,11.25
2017-12-30T13:20:28.160Z,11.37
2017-12-30T13:21:28.736Z,11.41
2017-12-30T13:22:29.312Z,11.29
2017-12-30T13:23:29.888Z,11.33
2017-12-30T13:24:30.463Z,11.30